sensor_id;sensor_type;location;lat;lon;timestamp;P1;durP1;ratioP1;P2;durP2;ratioP2
55220;SDS011;41089;51.448;6.604;2022-11-15T00:01:55;1754.97;;;282.98;;
55220;SDS011;41089;51.448;6.604;2022-11-15T00:07:56;1999.90;;;579.20;;
55220;SDS011;41089;51.448;6.604;2022-11-15T00:13:57;1999.90;;;701.42;;
55220;SDS011;41089;51.448;6.604;2022-11-15T00:19:57;1999.90;;;717.85;;
55220;SDS011;41089;51.448;6.604;2022-11-15T00:25:58;1999.90;;;583.43;;
55220;SDS011;41089;51.448;6.604;2022-11-15T00:31:58;1999.90;;;777.00;;
55220;SDS011;41089;51.448;6.604;2022-11-15T00:37:59;1999.90;;;857.88;;
55220;SDS011;41089;51.448;6.604;2022-11-15T00:44:00;1999.90;;;752.50;;
55220;SDS011;41089;51.448;6.604;2022-11-15T00:50:00;1999.90;;;593.43;;
55220;SDS011;41089;51.448;6.604;2022-11-15T00:56:01;1999.90;;;818.07;;
55220;SDS011;41089;51.448;6.604;2022-11-15T01:02:01;1999.90;;;723.10;;
55220;SDS011;41089;51.448;6.604;2022-11-15T01:08:02;1999.90;;;373.10;;
55220;SDS011;41089;51.448;6.604;2022-11-15T01:14:02;1883.07;;;509.33;;
55220;SDS011;41089;51.448;6.604;2022-11-15T01:20:03;1999.90;;;565.30;;
55220;SDS011;41089;51.448;6.604;2022-11-15T01:26:05;1999.90;;;542.35;;
55220;SDS011;41089;51.448;6.604;2022-11-15T01:32:07;1999.90;;;527.72;;
55220;SDS011;41089;51.448;6.604;2022-11-15T01:38:08;1999.90;;;416.80;;
55220;SDS011;41089;51.448;6.604;2022-11-15T01:50:47;1999.90;;;541.03;;
55220;SDS011;41089;51.448;6.604;2022-11-15T01:56:51;1999.90;;;638.95;;
55220;SDS011;41089;51.448;6.604;2022-11-15T02:02:53;1999.90;;;626.40;;
55220;SDS011;41089;51.448;6.604;2022-11-15T02:08:54;1999.90;;;538.28;;
55220;SDS011;41089;51.448;6.604;2022-11-15T02:14:56;1996.32;;;498.88;;
55220;SDS011;41089;51.448;6.604;2022-11-15T02:21:07;1999.90;;;692.05;;
55220;SDS011;41089;51.448;6.604;2022-11-15T02:33:21;1999.90;;;583.28;;
55220;SDS011;41089;51.448;6.604;2022-11-15T02:39:42;1999.90;;;848.50;;
55220;SDS011;41089;51.448;6.604;2022-11-15T02:46:08;1950.35;;;528.75;;
55220;SDS011;41089;51.448;6.604;2022-11-15T02:52:17;1999.90;;;896.67;;
55220;SDS011;41089;51.448;6.604;2022-11-15T02:58:29;1999.90;;;525.38;;
55220;SDS011;41089;51.448;6.604;2022-11-15T03:11:17;1999.90;;;706.92;;
55220;SDS011;41089;51.448;6.604;2022-11-15T03:17:20;1999.90;;;559.55;;
55220;SDS011;41089;51.448;6.604;2022-11-15T03:23:22;1999.90;;;351.42;;
55220;SDS011;41089;51.448;6.604;2022-11-15T03:29:24;1250.43;;;284.33;;
55220;SDS011;41089;51.448;6.604;2022-11-15T03:35:30;14.52;;;7.47;;
55220;SDS011;41089;51.448;6.604;2022-11-15T03:41:40;10.52;;;7.72;;
55220;SDS011;41089;51.448;6.604;2022-11-15T03:47:50;11.57;;;7.53;;
55220;SDS011;41089;51.448;6.604;2022-11-15T03:53:54;9.43;;;8.27;;
55220;SDS011;41089;51.448;6.604;2022-11-15T03:59:54;13.87;;;9.07;;
55220;SDS011;41089;51.448;6.604;2022-11-15T04:05:54;9.25;;;8.13;;
55220;SDS011;41089;51.448;6.604;2022-11-15T04:11:55;11.00;;;8.48;;
55220;SDS011;41089;51.448;6.604;2022-11-15T04:17:56;9.43;;;8.45;;
55220;SDS011;41089;51.448;6.604;2022-11-15T04:23:57;12.38;;;8.40;;
55220;SDS011;41089;51.448;6.604;2022-11-15T04:30:12;11.88;;;8.82;;
55220;SDS011;41089;51.448;6.604;2022-11-15T04:36:13;11.32;;;8.73;;
55220;SDS011;41089;51.448;6.604;2022-11-15T04:42:32;15.15;;;8.35;;
55220;SDS011;41089;51.448;6.604;2022-11-15T04:48:32;9.57;;;8.13;;
55220;SDS011;41089;51.448;6.604;2022-11-15T04:54:33;8.52;;;7.70;;
55220;SDS011;41089;51.448;6.604;2022-11-15T05:00:33;9.00;;;8.10;;
55220;SDS011;41089;51.448;6.604;2022-11-15T05:06:34;11.18;;;8.95;;
55220;SDS011;41089;51.448;6.604;2022-11-15T05:12:34;10.67;;;8.63;;
55220;SDS011;41089;51.448;6.604;2022-11-15T05:18:35;10.07;;;7.80;;
55220;SDS011;41089;51.448;6.604;2022-11-15T05:24:35;10.10;;;8.65;;
55220;SDS011;41089;51.448;6.604;2022-11-15T05:30:36;9.20;;;8.23;;
55220;SDS011;41089;51.448;6.604;2022-11-15T05:36:37;10.82;;;8.48;;
55220;SDS011;41089;51.448;6.604;2022-11-15T05:42:38;8.43;;;6.95;;
55220;SDS011;41089;51.448;6.604;2022-11-15T05:48:40;8.15;;;7.03;;
55220;SDS011;41089;51.448;6.604;2022-11-15T05:54:42;9.63;;;6.78;;
55220;SDS011;41089;51.448;6.604;2022-11-15T06:00:43;8.88;;;6.32;;
55220;SDS011;41089;51.448;6.604;2022-11-15T06:06:43;10.23;;;7.18;;
55220;SDS011;41089;51.448;6.604;2022-11-15T06:12:44;8.23;;;7.03;;
55220;SDS011;41089;51.448;6.604;2022-11-15T06:18:44;7.47;;;6.68;;
55220;SDS011;41089;51.448;6.604;2022-11-15T06:24:45;9.13;;;7.07;;
55220;SDS011;41089;51.448;6.604;2022-11-15T06:30:46;7.05;;;6.10;;
55220;SDS011;41089;51.448;6.604;2022-11-15T06:36:47;7.60;;;6.43;;
55220;SDS011;41089;51.448;6.604;2022-11-15T06:42:47;7.40;;;6.27;;
55220;SDS011;41089;51.448;6.604;2022-11-15T06:48:52;6.60;;;5.57;;
55220;SDS011;41089;51.448;6.604;2022-11-15T06:54:52;8.77;;;5.50;;
55220;SDS011;41089;51.448;6.604;2022-11-15T07:00:53;6.78;;;5.82;;
55220;SDS011;41089;51.448;6.604;2022-11-15T07:06:57;8.93;;;5.55;;
55220;SDS011;41089;51.448;6.604;2022-11-15T07:12:58;6.63;;;5.70;;
55220;SDS011;41089;51.448;6.604;2022-11-15T07:18:58;5.78;;;5.10;;
55220;SDS011;41089;51.448;6.604;2022-11-15T07:24:59;5.18;;;4.18;;
55220;SDS011;41089;51.448;6.604;2022-11-15T07:31:03;4.83;;;3.93;;
55220;SDS011;41089;51.448;6.604;2022-11-15T07:37:04;4.22;;;3.00;;
55220;SDS011;41089;51.448;6.604;2022-11-15T07:49:06;3.00;;;2.30;;
55220;SDS011;41089;51.448;6.604;2022-11-15T07:55:07;3.83;;;1.73;;
55220;SDS011;41089;51.448;6.604;2022-11-15T08:01:08;2.72;;;1.63;;
55220;SDS011;41089;51.448;6.604;2022-11-15T08:07:10;2.28;;;1.55;;
55220;SDS011;41089;51.448;6.604;2022-11-15T08:13:11;2.67;;;1.33;;
55220;SDS011;41089;51.448;6.604;2022-11-15T08:19:11;2.70;;;1.50;;
55220;SDS011;41089;51.448;6.604;2022-11-15T08:25:12;5.88;;;2.22;;
55220;SDS011;41089;51.448;6.604;2022-11-15T08:31:14;3.17;;;2.72;;
55220;SDS011;41089;51.448;6.604;2022-11-15T08:37:16;3.33;;;2.15;;
55220;SDS011;41089;51.448;6.604;2022-11-15T08:43:16;4.88;;;1.90;;
55220;SDS011;41089;51.448;6.604;2022-11-15T08:49:17;3.05;;;1.60;;
55220;SDS011;41089;51.448;6.604;2022-11-15T08:55:18;2.27;;;1.50;;
55220;SDS011;41089;51.448;6.604;2022-11-15T09:01:19;3.60;;;1.92;;
55220;SDS011;41089;51.448;6.604;2022-11-15T09:07:21;4.78;;;1.75;;
55220;SDS011;41089;51.448;6.604;2022-11-15T09:13:22;3.33;;;1.85;;
55220;SDS011;41089;51.448;6.604;2022-11-15T09:19:25;5.70;;;2.22;;
55220;SDS011;41089;51.448;6.604;2022-11-15T09:25:33;4.97;;;2.47;;
55220;SDS011;41089;51.448;6.604;2022-11-15T09:31:34;3.92;;;1.73;;
55220;SDS011;41089;51.448;6.604;2022-11-15T09:37:35;4.80;;;1.60;;
55220;SDS011;41089;51.448;6.604;2022-11-15T09:43:39;3.60;;;1.60;;
55220;SDS011;41089;51.448;6.604;2022-11-15T09:49:43;4.18;;;1.65;;
55220;SDS011;41089;51.448;6.604;2022-11-15T09:56:03;3.03;;;1.60;;
55220;SDS011;41089;51.448;6.604;2022-11-15T10:14:46;4.75;;;2.50;;
55220;SDS011;41089;51.448;6.604;2022-11-15T10:20:53;3.38;;;2.25;;
55220;SDS011;41089;51.448;6.604;2022-11-15T10:26:57;5.30;;;2.30;;
55220;SDS011;41089;51.448;6.604;2022-11-15T10:32:58;3.92;;;2.05;;
55220;SDS011;41089;51.448;6.604;2022-11-15T10:39:11;4.07;;;1.83;;
55220;SDS011;41089;51.448;6.604;2022-11-15T10:51:47;3.00;;;2.00;;
55220;SDS011;41089;51.448;6.604;2022-11-15T10:57:51;3.17;;;1.70;;
55220;SDS011;41089;51.448;6.604;2022-11-15T11:04:06;6.95;;;2.70;;
55220;SDS011;41089;51.448;6.604;2022-11-15T11:10:18;3.42;;;2.58;;
55220;SDS011;41089;51.448;6.604;2022-11-15T11:23:52;2.35;;;1.38;;
55220;SDS011;41089;51.448;6.604;2022-11-15T11:30:13;3.55;;;1.90;;
55220;SDS011;41089;51.448;6.604;2022-11-15T11:42:50;3.10;;;2.33;;
55220;SDS011;41089;51.448;6.604;2022-11-15T11:55:38;3.75;;;1.67;;
55220;SDS011;41089;51.448;6.604;2022-11-15T12:01:40;4.38;;;2.00;;
55220;SDS011;41089;51.448;6.604;2022-11-15T12:07:42;2.17;;;1.45;;
55220;SDS011;41089;51.448;6.604;2022-11-15T12:13:43;3.22;;;1.58;;
55220;SDS011;41089;51.448;6.604;2022-11-15T12:19:45;4.55;;;1.70;;
55220;SDS011;41089;51.448;6.604;2022-11-15T12:31:51;1.52;;;1.15;;
55220;SDS011;41089;51.448;6.604;2022-11-15T12:37:55;4.47;;;1.38;;
55220;SDS011;41089;51.448;6.604;2022-11-15T12:43:57;4.93;;;1.60;;
55220;SDS011;41089;51.448;6.604;2022-11-15T12:49:59;3.60;;;1.17;;
55220;SDS011;41089;51.448;6.604;2022-11-15T13:02:25;3.00;;;1.00;;
55220;SDS011;41089;51.448;6.604;2022-11-15T13:08:38;2.67;;;1.25;;
55220;SDS011;41089;51.448;6.604;2022-11-15T13:21:21;3.28;;;1.17;;
55220;SDS011;41089;51.448;6.604;2022-11-15T13:27:41;3.38;;;1.20;;
55220;SDS011;41089;51.448;6.604;2022-11-15T13:33:42;3.63;;;0.80;;
55220;SDS011;41089;51.448;6.604;2022-11-15T13:39:44;3.65;;;1.00;;
55220;SDS011;41089;51.448;6.604;2022-11-15T13:45:44;2.72;;;1.05;;
55220;SDS011;41089;51.448;6.604;2022-11-15T13:57:56;6.95;;;1.10;;
55220;SDS011;41089;51.448;6.604;2022-11-15T14:03:59;7.10;;;1.33;;
55220;SDS011;41089;51.448;6.604;2022-11-15T14:10:16;3.90;;;1.30;;
55220;SDS011;41089;51.448;6.604;2022-11-15T14:16:20;3.38;;;1.38;;
55220;SDS011;41089;51.448;6.604;2022-11-15T14:22:22;2.47;;;1.35;;
55220;SDS011;41089;51.448;6.604;2022-11-15T14:28:28;5.82;;;2.22;;
55220;SDS011;41089;51.448;6.604;2022-11-15T14:34:33;5.95;;;1.50;;
55220;SDS011;41089;51.448;6.604;2022-11-15T14:40:34;3.90;;;1.48;;
55220;SDS011;41089;51.448;6.604;2022-11-15T14:46:34;4.27;;;1.27;;
55220;SDS011;41089;51.448;6.604;2022-11-15T14:52:34;2.70;;;1.10;;
55220;SDS011;41089;51.448;6.604;2022-11-15T14:58:35;2.53;;;1.40;;
55220;SDS011;41089;51.448;6.604;2022-11-15T15:04:36;4.67;;;2.87;;
55220;SDS011;41089;51.448;6.604;2022-11-15T15:10:37;5.60;;;2.45;;
55220;SDS011;41089;51.448;6.604;2022-11-15T15:16:39;6.07;;;2.55;;
55220;SDS011;41089;51.448;6.604;2022-11-15T15:22:40;4.60;;;2.50;;
55220;SDS011;41089;51.448;6.604;2022-11-15T15:28:40;4.27;;;2.33;;
55220;SDS011;41089;51.448;6.604;2022-11-15T15:34:41;3.40;;;1.83;;
55220;SDS011;41089;51.448;6.604;2022-11-15T15:40:41;3.20;;;1.87;;
55220;SDS011;41089;51.448;6.604;2022-11-15T15:46:42;4.15;;;1.98;;
55220;SDS011;41089;51.448;6.604;2022-11-15T15:58:42;3.33;;;2.10;;
55220;SDS011;41089;51.448;6.604;2022-11-15T16:04:43;5.57;;;2.13;;
55220;SDS011;41089;51.448;6.604;2022-11-15T16:10:43;1.93;;;1.80;;
55220;SDS011;41089;51.448;6.604;2022-11-15T16:16:44;6.03;;;2.22;;
55220;SDS011;41089;51.448;6.604;2022-11-15T16:22:44;3.63;;;2.30;;
55220;SDS011;41089;51.448;6.604;2022-11-15T16:28:44;2.27;;;1.90;;
55220;SDS011;41089;51.448;6.604;2022-11-15T16:34:45;3.43;;;2.13;;
55220;SDS011;41089;51.448;6.604;2022-11-15T16:40:45;5.97;;;2.13;;
55220;SDS011;41089;51.448;6.604;2022-11-15T16:46:46;3.28;;;2.20;;
55220;SDS011;41089;51.448;6.604;2022-11-15T16:52:51;2.28;;;2.05;;
55220;SDS011;41089;51.448;6.604;2022-11-15T16:58:53;1.95;;;1.60;;
55220;SDS011;41089;51.448;6.604;2022-11-15T17:04:54;5.47;;;2.17;;
55220;SDS011;41089;51.448;6.604;2022-11-15T17:10:55;3.43;;;2.10;;
55220;SDS011;41089;51.448;6.604;2022-11-15T17:16:56;3.35;;;1.50;;
55220;SDS011;41089;51.448;6.604;2022-11-15T17:22:56;4.15;;;2.78;;
55220;SDS011;41089;51.448;6.604;2022-11-15T17:28:57;5.43;;;1.90;;
55220;SDS011;41089;51.448;6.604;2022-11-15T17:34:59;4.80;;;2.00;;
55220;SDS011;41089;51.448;6.604;2022-11-15T17:47:05;3.45;;;2.20;;
55220;SDS011;41089;51.448;6.604;2022-11-15T17:53:07;3.90;;;2.05;;
55220;SDS011;41089;51.448;6.604;2022-11-15T17:59:08;6.78;;;2.30;;
55220;SDS011;41089;51.448;6.604;2022-11-15T18:05:09;3.65;;;2.08;;
55220;SDS011;41089;51.448;6.604;2022-11-15T18:17:14;2.55;;;1.90;;
55220;SDS011;41089;51.448;6.604;2022-11-15T18:23:16;3.97;;;2.00;;
55220;SDS011;41089;51.448;6.604;2022-11-15T18:29:17;4.50;;;2.08;;
55220;SDS011;41089;51.448;6.604;2022-11-15T18:35:18;2.63;;;2.40;;
55220;SDS011;41089;51.448;6.604;2022-11-15T18:41:19;3.63;;;2.33;;
55220;SDS011;41089;51.448;6.604;2022-11-15T18:47:24;5.32;;;2.65;;
55220;SDS011;41089;51.448;6.604;2022-11-15T18:53:24;4.13;;;2.73;;
55220;SDS011;41089;51.448;6.604;2022-11-15T19:05:26;3.15;;;2.20;;
55220;SDS011;41089;51.448;6.604;2022-11-15T19:11:28;2.95;;;2.50;;
55220;SDS011;41089;51.448;6.604;2022-11-15T19:17:30;2.30;;;2.10;;
55220;SDS011;41089;51.448;6.604;2022-11-15T19:23:34;3.57;;;2.67;;
55220;SDS011;41089;51.448;6.604;2022-11-15T19:29:35;3.97;;;2.58;;
55220;SDS011;41089;51.448;6.604;2022-11-15T19:35:36;6.43;;;3.67;;
55220;SDS011;41089;51.448;6.604;2022-11-15T19:41:36;4.13;;;3.43;;
55220;SDS011;41089;51.448;6.604;2022-11-15T19:47:38;6.82;;;4.10;;
55220;SDS011;41089;51.448;6.604;2022-11-15T19:53:38;5.17;;;4.07;;
55220;SDS011;41089;51.448;6.604;2022-11-15T19:59:38;6.40;;;3.85;;
55220;SDS011;41089;51.448;6.604;2022-11-15T20:05:39;4.37;;;3.87;;
55220;SDS011;41089;51.448;6.604;2022-11-15T20:11:40;6.82;;;3.88;;
55220;SDS011;41089;51.448;6.604;2022-11-15T20:17:43;6.05;;;3.42;;
55220;SDS011;41089;51.448;6.604;2022-11-15T20:23:43;4.47;;;3.92;;
55220;SDS011;41089;51.448;6.604;2022-11-15T20:35:44;5.10;;;4.07;;
55220;SDS011;41089;51.448;6.604;2022-11-15T20:41:44;6.10;;;4.93;;
55220;SDS011;41089;51.448;6.604;2022-11-15T20:47:45;5.43;;;4.43;;
55220;SDS011;41089;51.448;6.604;2022-11-15T20:59:48;8.13;;;4.60;;
55220;SDS011;41089;51.448;6.604;2022-11-15T21:05:48;4.33;;;3.93;;
55220;SDS011;41089;51.448;6.604;2022-11-15T21:11:48;5.20;;;4.53;;
55220;SDS011;41089;51.448;6.604;2022-11-15T21:18:08;7.50;;;4.85;;
55220;SDS011;41089;51.448;6.604;2022-11-15T21:24:09;8.93;;;5.85;;
55220;SDS011;41089;51.448;6.604;2022-11-15T21:30:10;9.40;;;6.07;;
55220;SDS011;41089;51.448;6.604;2022-11-15T21:36:11;11.50;;;6.05;;
55220;SDS011;41089;51.448;6.604;2022-11-15T21:42:12;11.77;;;7.70;;
55220;SDS011;41089;51.448;6.604;2022-11-15T21:48:12;10.15;;;6.80;;
55220;SDS011;41089;51.448;6.604;2022-11-15T21:54:12;10.20;;;6.53;;
55220;SDS011;41089;51.448;6.604;2022-11-15T22:00:13;11.77;;;7.50;;
55220;SDS011;41089;51.448;6.604;2022-11-15T22:06:33;14.30;;;7.90;;
55220;SDS011;41089;51.448;6.604;2022-11-15T22:12:34;12.93;;;7.57;;
55220;SDS011;41089;51.448;6.604;2022-11-15T22:18:35;8.43;;;5.57;;
55220;SDS011;41089;51.448;6.604;2022-11-15T22:24:35;6.88;;;5.22;;
55220;SDS011;41089;51.448;6.604;2022-11-15T22:30:37;5.60;;;5.00;;
55220;SDS011;41089;51.448;6.604;2022-11-15T22:36:37;6.55;;;5.65;;
55220;SDS011;41089;51.448;6.604;2022-11-15T22:42:44;6.97;;;5.10;;
55220;SDS011;41089;51.448;6.604;2022-11-15T22:48:44;5.60;;;5.05;;
55220;SDS011;41089;51.448;6.604;2022-11-15T22:54:46;5.90;;;4.83;;
55220;SDS011;41089;51.448;6.604;2022-11-15T23:00:47;5.85;;;4.78;;
55220;SDS011;41089;51.448;6.604;2022-11-15T23:06:49;5.80;;;5.20;;
55220;SDS011;41089;51.448;6.604;2022-11-15T23:12:49;8.80;;;5.27;;
55220;SDS011;41089;51.448;6.604;2022-11-15T23:19:08;5.38;;;4.53;;
55220;SDS011;41089;51.448;6.604;2022-11-15T23:25:10;6.10;;;4.40;;
55220;SDS011;41089;51.448;6.604;2022-11-15T23:31:10;7.33;;;4.90;;
55220;SDS011;41089;51.448;6.604;2022-11-15T23:37:29;6.70;;;4.40;;
55220;SDS011;41089;51.448;6.604;2022-11-15T23:43:29;5.28;;;4.70;;
55220;SDS011;41089;51.448;6.604;2022-11-15T23:49:30;8.38;;;4.68;;
55220;SDS011;41089;51.448;6.604;2022-11-15T23:55:31;5.87;;;3.83;;
